createdAt,value
2016-11-18T00:00:15.398Z,99.99
2016-11-18T00:01:28.351Z,99.99
2016-11-18T00:02:41.884Z,99.99
2016-11-18T00:03:53.938Z,99.99
2016-11-18T00:05:07.069Z,99.99
2016-11-18T00:06:20.147Z,99.99
2016-11-18T00:07:33.315Z,99.99
2016-11-18T00:08:45.835Z,99.99
2016-11-18T00:09:58.915Z,99.99
2016-11-18T00:11:11.470Z,99.99
2016-11-18T00:12:24.006Z,99.99
2016-11-18T00:13:37.716Z,99.99
2016-11-18T00:14:50.367Z,99.99
2016-11-18T00:16:03.680Z,99.99
2016-11-18T00:17:16.165Z,99.99
2016-11-18T00:18:29.691Z,99.99
2016-11-18T00:19:41.680Z,99.99
2016-11-18T00:20:54.252Z,99.99
2016-11-18T00:22:06.845Z,99.99
2016-11-18T00:23:20.429Z,99.99
2016-11-18T00:24:32.719Z,99.99
2016-11-18T00:25:44.700Z,99.99
2016-11-18T00:26:57.197Z,99.99
2016-11-18T00:28:09.860Z,99.99
2016-11-18T00:29:22.887Z,99.99
2016-11-18T00:30:36.546Z,99.99
2016-11-18T00:31:49.626Z,99.99
2016-11-18T00:33:02.725Z,99.99
2016-11-18T00:34:15.813Z,99.99
2016-11-18T00:35:28.301Z,99.99
2016-11-18T00:36:41.281Z,99.99
2016-11-18T00:37:54.405Z,99.99
2016-11-18T00:39:08.035Z,99.99
2016-11-18T00:40:20.478Z,99.99
2016-11-18T00:41:33.503Z,99.99
2016-11-18T00:42:46.016Z,99.99
2016-11-18T00:43:58.548Z,99.99
2016-11-18T00:45:11.260Z,99.99
2016-11-18T00:46:23.824Z,99.99
2016-11-18T00:47:36.021Z,99.99
2016-11-18T00:48:49.156Z,99.99
2016-11-18T00:50:02.713Z,99.99
2016-11-18T00:51:16.221Z,99.99
2016-11-18T00:52:29.804Z,99.99
2016-11-18T00:53:42.997Z,99.99
2016-11-18T00:54:56.027Z,99.99
2016-11-18T00:56:09.566Z,99.99
2016-11-18T00:57:22.642Z,99.99
2016-11-18T00:58:35.139Z,99.99
2016-11-18T00:59:48.247Z,99.99
2016-11-18T01:01:00.708Z,99.99
2016-11-18T01:02:13.199Z,99.99
2016-11-18T01:03:26.264Z,99.99
2016-11-18T01:04:39.790Z,99.99
2016-11-18T01:05:52.365Z,99.99
2016-11-18T01:07:05.426Z,99.99
2016-11-18T01:08:17.919Z,99.99
2016-11-18T01:09:30.888Z,99.99
2016-11-18T01:10:43.894Z,99.99
2016-11-18T01:11:56.360Z,99.99
2016-11-18T01:13:09.343Z,99.99
2016-11-18T01:14:21.868Z,99.99
2016-11-18T01:15:34.950Z,99.99
2016-11-18T01:16:47.992Z,99.99
2016-11-18T01:18:01.051Z,99.99
2016-11-18T01:19:13.542Z,99.99
2016-11-18T01:20:25.438Z,99.99
2016-11-18T01:21:38.510Z,99.99
2016-11-18T01:22:51.474Z,99.99
2016-11-18T01:24:03.401Z,99.99
2016-11-18T01:25:16.404Z,99.99
2016-11-18T01:26:29.449Z,99.99
2016-11-18T01:27:42.977Z,99.99
2016-11-18T01:28:56.529Z,99.99
2016-11-18T01:30:09.570Z,99.99
2016-11-18T01:31:22.062Z,99.99
2016-11-18T01:32:35.652Z,99.99
2016-11-18T01:33:47.656Z,99.99
2016-11-18T01:35:01.196Z,99.99
2016-11-18T01:36:13.114Z,99.99
2016-11-18T01:37:25.542Z,99.99
2016-11-18T01:38:38.051Z,99.99
2016-11-18T01:39:51.515Z,99.99
2016-11-18T01:41:04.516Z,99.99
2016-11-18T01:42:17.452Z,99.99
2016-11-18T01:43:30.440Z,99.99
2016-11-18T01:44:43.997Z,99.99
2016-11-18T01:45:57.036Z,99.99
2016-11-18T01:47:10.173Z,99.99
2016-11-18T01:48:23.235Z,99.99
2016-11-18T01:49:35.236Z,99.99
2016-11-18T01:50:48.269Z,99.99
2016-11-18T01:52:00.233Z,99.99
2016-11-18T01:53:13.762Z,99.99
2016-11-18T01:54:26.729Z,99.99
2016-11-18T01:55:40.387Z,99.99
2016-11-18T01:56:53.407Z,99.99
2016-11-18T01:58:04.274Z,99.99
2016-11-18T01:59:16.763Z,99.99
2016-11-18T02:00:29.780Z,99.99
2016-11-18T02:02:13.896Z,99.99
2016-11-18T02:03:26.843Z,99.99
2016-11-18T02:04:40.426Z,99.99
2016-11-18T02:05:53.975Z,99.99
2016-11-18T02:07:07.007Z,99.99
2016-11-18T02:08:19.973Z,99.99
2016-11-18T02:09:32.440Z,99.99
2016-11-18T02:10:45.461Z,99.99
2016-11-18T02:11:58.524Z,99.99
2016-11-18T02:13:11.527Z,99.99
2016-11-18T02:14:25.092Z,99.99
2016-11-18T02:15:38.075Z,99.99
2016-11-18T02:16:51.590Z,99.99
2016-11-18T02:18:04.618Z,99.99
2016-11-18T02:19:17.118Z,99.99
2016-11-18T02:20:30.105Z,99.99
2016-11-18T02:21:42.625Z,99.99
2016-11-18T02:22:54.063Z,99.99
2016-11-18T02:24:07.659Z,99.99
2016-11-18T02:25:19.650Z,99.99
2016-11-18T02:26:31.665Z,99.99
2016-11-18T02:27:44.115Z,99.99
2016-11-18T02:28:57.182Z,99.99
2016-11-18T02:30:09.107Z,99.99
2016-11-18T02:31:20.567Z,99.99
2016-11-18T02:32:33.079Z,99.99
2016-11-18T02:33:45.612Z,99.99
2016-11-18T02:34:58.117Z,99.99
2016-11-18T02:36:11.109Z,99.99
2016-11-18T02:37:24.648Z,99.99
2016-11-18T02:38:37.117Z,99.99
2016-11-18T02:39:49.042Z,99.99
2016-11-18T02:41:01.551Z,99.99
2016-11-18T02:42:14.630Z,99.99
2016-11-18T02:43:26.577Z,99.99
2016-11-18T02:44:37.972Z,99.99
2016-11-18T02:45:51.541Z,99.99
2016-11-18T02:47:04.519Z,99.99
2016-11-18T02:48:17.587Z,99.99
2016-11-18T02:49:30.076Z,99.99
2016-11-18T02:50:41.507Z,99.99
2016-11-18T02:51:53.449Z,99.99
2016-11-18T02:53:06.506Z,99.99
2016-11-18T02:54:18.482Z,99.99
2016-11-18T02:55:30.406Z,99.99
2016-11-18T02:56:43.459Z,99.99
2016-11-18T02:57:56.517Z,99.99
2016-11-18T02:59:09.006Z,99.99
2016-11-18T03:00:21.520Z,99.99
2016-11-18T03:01:34.473Z,99.99
2016-11-18T03:04:32.248Z,99.99
2016-11-18T03:05:44.769Z,99.99
2016-11-18T03:06:58.271Z,99.99
2016-11-18T03:08:11.760Z,99.99
2016-11-18T03:09:24.788Z,99.99
2016-11-18T03:10:38.349Z,99.99
2016-11-18T03:11:51.882Z,99.99
2016-11-18T03:13:03.842Z,99.99
2016-11-18T03:14:16.813Z,99.99
2016-11-18T03:15:29.797Z,99.99
2016-11-18T03:18:28.067Z,99.99
2016-11-18T03:19:41.596Z,99.99
2016-11-18T03:20:55.209Z,99.99
2016-11-18T03:22:08.762Z,99.99
2016-11-18T03:23:21.278Z,99.99
2016-11-18T03:24:34.361Z,99.99
2016-11-18T03:27:32.096Z,99.99
2016-11-18T03:28:45.567Z,99.99
2016-11-18T03:29:58.592Z,99.99
2016-11-18T03:31:11.633Z,99.99
2016-11-18T03:32:25.923Z,99.99
2016-11-18T03:33:39.444Z,99.99
2016-11-18T03:34:52.960Z,99.99
2016-11-18T03:36:06.508Z,99.99
2016-11-18T03:37:19.503Z,99.99
2016-11-18T03:38:32.479Z,99.99
2016-11-18T03:40:16.610Z,99.99
2016-11-18T03:42:01.214Z,99.99
2016-11-18T03:43:14.188Z,99.99
2016-11-18T03:44:27.275Z,99.99
2016-11-18T03:45:40.315Z,99.99
2016-11-18T03:46:52.308Z,99.99
2016-11-18T03:48:05.393Z,99.99
2016-11-18T03:49:18.465Z,99.99
2016-11-18T03:50:31.487Z,99.99
2016-11-18T03:51:45.054Z,99.99
2016-11-18T03:52:58.581Z,99.99
2016-11-18T03:54:12.138Z,99.99
2016-11-18T03:55:25.642Z,99.99
2016-11-18T03:56:39.193Z,99.99
2016-11-18T03:57:52.190Z,99.99
2016-11-18T03:59:05.720Z,99.99
2016-11-18T04:00:18.692Z,99.99
2016-11-18T04:01:32.228Z,99.99
2016-11-18T04:02:45.726Z,99.99
2016-11-18T04:03:58.813Z,99.99
2016-11-18T04:05:12.397Z,99.99
2016-11-18T04:06:25.981Z,99.99
2016-11-18T04:07:39.494Z,99.99
2016-11-18T04:08:51.953Z,99.99
2016-11-18T04:10:04.921Z,99.99
2016-11-18T04:11:17.941Z,99.99
2016-11-18T04:13:02.615Z,99.99
2016-11-18T04:14:16.187Z,99.99
2016-11-18T04:15:29.130Z,99.99
2016-11-18T04:16:42.124Z,99.99
2016-11-18T04:17:54.606Z,99.99
2016-11-18T04:19:07.625Z,99.99
2016-11-18T04:20:21.212Z,99.99
2016-11-18T04:21:34.206Z,99.99
2016-11-18T04:22:47.172Z,99.99
2016-11-18T04:24:00.261Z,99.99
2016-11-18T04:25:13.742Z,99.99
2016-11-18T04:26:26.748Z,99.99
2016-11-18T04:27:39.790Z,99.99
2016-11-18T04:28:52.843Z,99.99
2016-11-18T04:30:04.842Z,99.99
2016-11-18T04:31:18.427Z,99.99
2016-11-18T04:32:32.052Z,99.99
2016-11-18T04:33:45.667Z,99.99
2016-11-18T04:34:58.673Z,99.99
2016-11-18T04:36:12.176Z,99.99
2016-11-18T04:37:25.765Z,99.99
2016-11-18T04:38:38.743Z,99.99
2016-11-18T04:39:51.860Z,99.99
2016-11-18T04:41:04.329Z,99.99
2016-11-18T04:42:17.297Z,99.99
2016-11-18T04:43:30.344Z,99.99
2016-11-18T04:44:43.355Z,99.99
2016-11-18T04:45:55.866Z,99.99
2016-11-18T04:47:08.876Z,99.99
2016-11-18T04:48:21.895Z,99.99
2016-11-18T04:49:34.856Z,99.99
2016-11-18T04:50:47.898Z,99.99
2016-11-18T04:52:00.452Z,99.99
2016-11-18T04:53:13.952Z,99.99
2016-11-18T04:54:27.046Z,99.99
2016-11-18T04:55:40.065Z,99.99
2016-11-18T04:56:52.513Z,99.99
2016-11-18T04:58:06.095Z,99.99
2016-11-18T04:59:19.095Z,99.99
2016-11-18T05:00:32.099Z,99.99
2016-11-18T05:01:45.656Z,99.99
2016-11-18T05:02:59.222Z,99.99
2016-11-18T05:04:12.255Z,99.99
2016-11-18T05:05:25.863Z,99.99
2016-11-18T05:06:39.418Z,99.99
2016-11-18T05:07:52.987Z,99.99
2016-11-18T05:09:06.043Z,99.99
2016-11-18T05:10:19.649Z,99.99
2016-11-18T05:11:33.140Z,99.99
2016-11-18T05:12:46.654Z,99.99
2016-11-18T05:13:59.711Z,99.99
2016-11-18T05:15:12.724Z,99.99
2016-11-18T05:16:26.260Z,99.99
2016-11-18T05:17:39.282Z,99.99
2016-11-18T05:18:52.856Z,99.99
2016-11-18T05:20:05.331Z,99.99
2016-11-18T05:21:18.945Z,99.99
2016-11-18T05:22:32.495Z,99.99
2016-11-18T05:23:46.119Z,99.99
2016-11-18T05:24:59.626Z,99.99
2016-11-18T05:26:13.269Z,99.99
2016-11-18T05:27:25.780Z,99.99
2016-11-18T05:28:38.344Z,99.99
2016-11-18T05:29:51.918Z,99.99
2016-11-18T05:31:04.418Z,99.99
2016-11-18T05:32:17.951Z,99.99
2016-11-18T05:33:31.548Z,99.99
2016-11-18T05:34:44.601Z,99.99
2016-11-18T05:35:58.248Z,99.99
2016-11-18T05:37:11.341Z,99.99
2016-11-18T05:38:24.875Z,99.99
2016-11-18T05:39:37.898Z,99.99
2016-11-18T05:40:51.435Z,99.99
2016-11-18T05:42:04.460Z,99.99
2016-11-18T05:43:18.080Z,99.99
2016-11-18T05:44:31.688Z,99.99
2016-11-18T05:45:45.309Z,99.99
2016-11-18T05:46:58.932Z,99.99
2016-11-18T05:48:12.023Z,99.99
2016-11-18T05:49:25.138Z,99.99
2016-11-18T05:50:38.699Z,99.99
2016-11-18T05:51:51.747Z,99.99
2016-11-18T05:53:05.314Z,99.99
2016-11-18T05:54:18.844Z,99.99
2016-11-18T05:55:32.420Z,99.99
2016-11-18T05:56:45.574Z,99.99
2016-11-18T05:57:58.096Z,99.99
2016-11-18T05:59:11.681Z,99.99
2016-11-18T06:00:25.315Z,99.99
2016-11-18T06:01:38.346Z,99.99
2016-11-18T06:02:51.938Z,99.99
2016-11-18T06:04:04.932Z,99.99
2016-11-18T06:05:17.927Z,99.99
2016-11-18T06:06:31.454Z,99.99
2016-11-18T06:07:43.449Z,99.99
2016-11-18T06:08:57.002Z,99.99
2016-11-18T06:10:09.448Z,99.99
2016-11-18T06:11:22.516Z,99.99
2016-11-18T06:12:34.958Z,99.99
2016-11-18T06:13:47.476Z,99.99
2016-11-18T06:15:01.047Z,99.99
2016-11-18T06:16:13.530Z,99.99
2016-11-18T06:17:27.139Z,99.99
2016-11-18T06:18:40.145Z,99.99
2016-11-18T06:19:53.183Z,99.99
2016-11-18T06:21:06.233Z,99.99
2016-11-18T06:22:18.731Z,99.99
2016-11-18T06:23:31.778Z,99.99
2016-11-18T06:24:44.190Z,99.99
2016-11-18T06:25:57.735Z,99.99
2016-11-18T06:27:42.365Z,99.99
2016-11-18T06:28:55.899Z,99.99
2016-11-18T06:30:08.388Z,99.99
2016-11-18T06:31:21.446Z,99.99
2016-11-18T06:32:34.411Z,99.99
2016-11-18T06:33:46.941Z,99.99
2016-11-18T06:35:00.479Z,99.99
2016-11-18T06:36:13.479Z,99.99
2016-11-18T06:37:27.107Z,99.99
2016-11-18T06:38:40.146Z,99.99
2016-11-18T06:39:53.157Z,99.99
2016-11-18T06:41:06.193Z,99.99
2016-11-18T06:42:19.764Z,99.99
2016-11-18T06:43:32.287Z,99.99
2016-11-18T06:44:44.232Z,99.99
2016-11-18T06:45:57.851Z,99.99
2016-11-18T06:47:11.385Z,99.99
2016-11-18T06:48:24.884Z,99.99
2016-11-18T06:49:37.331Z,99.99
2016-11-18T06:50:50.878Z,99.99
2016-11-18T06:52:03.860Z,99.99
2016-11-18T06:53:16.867Z,99.99
2016-11-18T06:54:29.908Z,99.99
2016-11-18T06:55:42.896Z,99.99
2016-11-18T06:56:55.943Z,99.99
2016-11-18T06:58:08.942Z,99.99
2016-11-18T06:59:22.522Z,99.99
2016-11-18T07:00:35.013Z,99.99
2016-11-18T07:01:48.037Z,99.99
2016-11-18T07:03:01.612Z,99.99
2016-11-18T07:04:14.656Z,99.99
2016-11-18T07:05:28.193Z,99.99
2016-11-18T07:06:41.783Z,99.99
2016-11-18T07:07:54.801Z,99.99
2016-11-18T07:09:07.759Z,99.99
2016-11-18T07:10:21.284Z,99.99
2016-11-18T07:11:34.269Z,99.99
2016-11-18T07:12:47.236Z,99.99
2016-11-18T07:14:00.863Z,99.99
2016-11-18T07:15:13.876Z,99.99
2016-11-18T07:16:26.877Z,99.99
2016-11-18T07:17:39.362Z,99.99
2016-11-18T07:18:52.836Z,99.99
2016-11-18T07:20:05.913Z,99.99
2016-11-18T07:21:19.479Z,99.99
2016-11-18T07:22:32.546Z,99.99
2016-11-18T07:23:45.059Z,99.99
2016-11-18T07:24:58.639Z,99.99
2016-11-18T07:26:12.103Z,99.99
2016-11-18T07:27:25.125Z,99.99
2016-11-18T07:28:38.686Z,99.99
2016-11-18T07:29:52.220Z,99.99
2016-11-18T07:31:36.851Z,99.99
2016-11-18T07:32:50.381Z,99.99
2016-11-18T07:34:03.355Z,99.99
2016-11-18T07:35:16.343Z,99.99
2016-11-18T07:36:29.883Z,99.99
2016-11-18T07:37:43.416Z,99.99
2016-11-18T07:38:56.489Z,99.99
2016-11-18T07:40:08.995Z,99.99
2016-11-18T07:41:21.993Z,99.99
2016-11-18T07:42:35.074Z,99.99
2016-11-18T07:43:48.639Z,99.99
2016-11-18T07:45:01.166Z,99.99
2016-11-18T07:46:14.107Z,99.99
2016-11-18T07:47:27.118Z,99.99
2016-11-18T07:48:40.717Z,99.99
2016-11-18T07:49:53.680Z,99.99
2016-11-18T07:51:07.171Z,99.99
2016-11-18T07:52:20.262Z,99.99
2016-11-18T07:53:33.822Z,99.99
2016-11-18T07:54:46.919Z,99.99
2016-11-18T07:55:59.963Z,99.99
2016-11-18T07:57:13.492Z,99.99
2016-11-18T07:58:26.538Z,99.99
2016-11-18T07:59:38.992Z,99.99
2016-11-18T08:00:52.612Z,99.99
2016-11-18T08:02:05.140Z,99.99
2016-11-18T08:03:18.751Z,99.99
2016-11-18T08:04:31.825Z,99.99
2016-11-18T08:05:44.796Z,99.99
2016-11-18T08:06:58.333Z,99.99
2016-11-18T08:08:11.865Z,99.99
2016-11-18T08:09:24.871Z,99.99
2016-11-18T08:10:37.916Z,99.99
2016-11-18T08:11:50.864Z,99.99
2016-11-18T08:13:04.467Z,99.99
2016-11-18T08:14:17.549Z,99.99
2016-11-18T08:15:30.598Z,99.99
2016-11-18T08:16:43.620Z,99.99
2016-11-18T08:17:57.157Z,99.99
2016-11-18T08:19:10.748Z,99.99
2016-11-18T08:20:23.889Z,99.99
2016-11-18T08:21:36.912Z,99.99
2016-11-18T08:22:49.460Z,99.99
2016-11-18T08:24:03.074Z,99.99
2016-11-18T08:25:16.601Z,99.99
2016-11-18T08:26:30.240Z,99.99
2016-11-18T08:27:43.204Z,99.99
2016-11-18T08:28:56.275Z,99.99
2016-11-18T08:30:09.321Z,99.99
2016-11-18T08:31:21.747Z,99.99
2016-11-18T08:32:34.804Z,99.99
2016-11-18T08:33:48.392Z,99.99
2016-11-18T08:35:00.925Z,99.99
2016-11-18T08:36:13.920Z,99.99
2016-11-18T08:37:25.319Z,99.99
2016-11-18T08:38:37.815Z,99.99
2016-11-18T08:39:50.875Z,99.99
2016-11-18T08:41:35.523Z,99.99
2016-11-18T08:42:48.499Z,99.99
2016-11-18T08:44:01.485Z,99.99
2016-11-18T08:45:15.060Z,99.99
2016-11-18T08:46:28.630Z,99.99
2016-11-18T08:47:41.656Z,99.99
2016-11-18T08:48:55.195Z,99.99
2016-11-18T08:50:08.216Z,99.99
2016-11-18T08:51:21.761Z,99.99
2016-11-18T08:52:35.332Z,99.99
2016-11-18T08:53:47.741Z,99.99
2016-11-18T08:55:01.306Z,99.99
2016-11-18T08:56:14.841Z,99.99
2016-11-18T08:57:28.417Z,99.99
2016-11-18T08:58:41.947Z,99.99
2016-11-18T08:59:54.538Z,99.99
2016-11-18T09:01:07.524Z,99.99
2016-11-18T09:02:20.534Z,99.99
2016-11-18T09:03:33.557Z,99.99
2016-11-18T09:04:46.001Z,99.99
2016-11-18T09:05:58.986Z,99.99
2016-11-18T09:07:11.467Z,99.99
2016-11-18T09:08:23.981Z,99.99
2016-11-18T09:09:37.566Z,99.99
2016-11-18T09:10:50.551Z,99.99
2016-11-18T09:12:04.137Z,99.99
2016-11-18T09:13:16.620Z,99.99
2016-11-18T09:14:29.651Z,99.99
2016-11-18T09:15:42.654Z,99.99
2016-11-18T09:16:55.227Z,99.99
2016-11-18T09:18:08.219Z,99.99
2016-11-18T09:19:21.834Z,99.99
2016-11-18T09:20:35.466Z,99.99
2016-11-18T09:21:49.078Z,99.99
2016-11-18T09:23:02.161Z,99.99
2016-11-18T09:24:15.162Z,99.99
2016-11-18T09:25:28.668Z,99.99
2016-11-18T09:26:42.239Z,99.99
2016-11-18T09:27:55.758Z,99.99
2016-11-18T09:29:09.348Z,99.99
2016-11-18T09:30:22.496Z,99.99
2016-11-18T09:31:36.021Z,99.99
2016-11-18T09:32:49.030Z,99.99
2016-11-18T09:34:02.047Z,99.99
2016-11-18T09:35:15.640Z,99.99
2016-11-18T09:36:28.677Z,99.99
2016-11-18T09:38:12.324Z,99.99
2016-11-18T09:39:24.766Z,99.99
2016-11-18T09:40:38.328Z,99.99
2016-11-18T09:41:51.331Z,99.99
2016-11-18T09:43:04.868Z,99.99
2016-11-18T09:44:17.918Z,99.99
2016-11-18T09:45:31.488Z,99.99
2016-11-18T09:46:45.105Z,99.99
2016-11-18T09:47:58.651Z,99.99
2016-11-18T09:49:12.174Z,99.99
2016-11-18T09:50:25.276Z,99.99
2016-11-18T09:51:37.820Z,99.99
2016-11-18T09:52:51.000Z,99.99
2016-11-18T09:54:35.706Z,99.99
2016-11-18T09:55:49.220Z,99.99
2016-11-18T09:57:02.282Z,99.99
2016-11-18T09:58:14.225Z,99.99
2016-11-18T09:59:27.852Z,99.99
2016-11-18T10:00:40.884Z,99.99
2016-11-18T10:01:53.926Z,99.99
2016-11-18T10:03:06.918Z,99.99
2016-11-18T10:04:19.919Z,99.99
2016-11-18T10:05:32.963Z,99.99
2016-11-18T10:06:44.964Z,99.99
2016-11-18T10:07:57.994Z,99.99
2016-11-18T10:09:10.453Z,99.99
2016-11-18T10:10:24.002Z,99.99
2016-11-18T10:11:35.958Z,99.99
2016-11-18T10:12:49.515Z,99.99
2016-11-18T10:14:02.049Z,99.99
2016-11-18T10:15:15.041Z,99.99
2016-11-18T10:16:28.103Z,99.99
2016-11-18T10:17:40.600Z,99.99
2016-11-18T10:18:54.215Z,99.99
2016-11-18T10:20:06.775Z,99.99
2016-11-18T10:21:18.716Z,99.99
2016-11-18T10:22:31.702Z,99.99
2016-11-18T10:23:43.631Z,99.99
2016-11-18T10:24:56.616Z,99.99
2016-11-18T10:26:09.647Z,99.99
2016-11-18T10:27:21.640Z,99.99
2016-11-18T10:28:34.128Z,99.99
2016-11-18T10:29:46.631Z,99.99
2016-11-18T10:31:00.238Z,99.99
2016-11-18T10:32:13.713Z,99.99
2016-11-18T10:33:26.791Z,99.99
2016-11-18T10:34:39.799Z,99.99
2016-11-18T10:35:52.815Z,99.99
2016-11-18T10:37:05.800Z,99.99
2016-11-18T10:38:18.279Z,99.99
2016-11-18T10:39:31.312Z,99.99
2016-11-18T10:40:43.853Z,99.99
2016-11-18T10:41:57.438Z,99.99
2016-11-18T10:43:10.475Z,99.99
2016-11-18T10:44:23.509Z,99.99
2016-11-18T10:45:35.989Z,99.99
2016-11-18T10:46:49.562Z,99.99
2016-11-18T10:48:02.041Z,99.99
2016-11-18T10:49:46.192Z,99.99
2016-11-18T10:50:59.283Z,99.99
2016-11-18T10:52:12.324Z,99.99
2016-11-18T10:53:25.885Z,99.99
2016-11-18T10:54:38.417Z,99.99
2016-11-18T10:55:50.936Z,99.99
2016-11-18T10:57:03.444Z,99.99
2016-11-18T10:58:16.442Z,99.99
2016-11-18T10:59:29.481Z,99.87
2016-11-18T11:00:43.047Z,99.99
2016-11-18T11:01:55.042Z,99.99
2016-11-18T11:03:07.529Z,99.99
2016-11-18T11:04:20.054Z,99.99
2016-11-18T11:05:33.040Z,99.99
2016-11-18T11:06:46.647Z,99.99
2016-11-18T11:08:00.223Z,99.99
2016-11-18T11:09:13.275Z,99.99
2016-11-18T11:10:25.785Z,99.99
2016-11-18T11:11:37.752Z,99.99
2016-11-18T11:12:50.791Z,99.99
2016-11-18T11:14:03.894Z,99.99
2016-11-18T11:15:17.432Z,99.99
2016-11-18T11:16:29.905Z,99.99
2016-11-18T11:17:41.844Z,99.99
2016-11-18T11:18:55.380Z,99.99
2016-11-18T11:20:08.431Z,99.99
2016-11-18T11:21:20.900Z,99.99
2016-11-18T11:22:32.843Z,99.99
2016-11-18T11:23:45.440Z,99.63
2016-11-18T11:24:58.977Z,99.99
2016-11-18T11:26:11.029Z,99.34
2016-11-18T11:27:24.071Z,99.73
2016-11-18T11:28:36.103Z,99.63
2016-11-18T11:29:49.070Z,99.82
2016-11-18T11:31:00.469Z,99.99
2016-11-18T11:32:13.013Z,98.86
2016-11-18T11:33:56.608Z,98.58
2016-11-18T11:35:09.652Z,98.58
2016-11-18T11:36:22.155Z,98.96
2016-11-18T11:37:35.709Z,97.81
2016-11-18T11:38:48.823Z,97.81
2016-11-18T11:40:01.261Z,97.81
2016-11-18T11:41:13.787Z,98.05
2016-11-18T11:42:26.285Z,97.86
2016-11-18T11:43:39.343Z,97.47
2016-11-18T11:44:51.304Z,98.05
2016-11-18T11:46:03.250Z,97.38
2016-11-18T11:47:15.190Z,97.86
2016-11-18T11:48:28.204Z,97.28
2016-11-18T11:49:40.710Z,97.76
2016-11-18T11:50:53.768Z,96.66
2016-11-18T11:52:06.782Z,96.27
2016-11-18T11:53:50.340Z,95.98
2016-11-18T11:55:02.843Z,95.79
2016-11-18T11:56:15.328Z,95.98
2016-11-18T11:57:27.765Z,95.5
2016-11-18T11:58:41.304Z,95.4
2016-11-18T11:59:53.787Z,94.93
2016-11-18T12:01:06.281Z,95.98
2016-11-18T12:02:18.240Z,96.08
2016-11-18T12:03:31.803Z,96.13
2016-11-18T12:04:43.728Z,96.51
2016-11-18T12:05:56.680Z,96.42
2016-11-18T12:07:08.065Z,96.99
2016-11-18T12:08:20.572Z,96.8
2016-11-18T12:09:33.695Z,96.7
2016-11-18T12:10:47.230Z,96.89
2016-11-18T12:12:00.218Z,96.8
2016-11-18T12:13:13.302Z,96.66
2016-11-18T12:14:26.849Z,96.08
2016-11-18T12:15:39.379Z,95.98
2016-11-18T12:16:52.368Z,96.17
2016-11-18T12:18:05.314Z,95.98
2016-11-18T12:19:18.884Z,96.08
2016-11-18T12:20:30.882Z,96.89
2016-11-18T12:21:43.835Z,96.89
2016-11-18T12:22:56.843Z,96.8
2016-11-18T12:24:09.898Z,96.17
2016-11-18T12:25:23.419Z,95.5
2016-11-18T12:26:35.342Z,96.17
2016-11-18T12:28:19.985Z,95.89
2016-11-18T12:29:32.991Z,96.27
2016-11-18T12:30:45.494Z,96.56
2016-11-18T12:31:58.574Z,96.51
2016-11-18T12:33:10.563Z,96.56
2016-11-18T12:34:23.049Z,95.79
2016-11-18T12:35:36.102Z,96.08
2016-11-18T12:36:48.574Z,95.98
2016-11-18T12:38:01.635Z,95.4
2016-11-18T12:39:14.185Z,95.5
2016-11-18T12:40:27.190Z,95.26
2016-11-18T12:41:40.715Z,94.88
2016-11-18T12:42:53.174Z,95.65
2016-11-18T12:44:06.176Z,95.98
2016-11-18T12:45:18.112Z,96.66
2016-11-18T12:46:31.660Z,96.99
2016-11-18T12:47:43.594Z,97.57
2016-11-18T12:48:55.552Z,97.66
2016-11-18T12:50:07.012Z,98.72
2016-11-18T12:51:20.035Z,98.82
2016-11-18T12:52:32.992Z,99.01
2016-11-18T12:53:46.095Z,99.82
2016-11-18T12:54:59.086Z,99.34
2016-11-18T12:56:11.583Z,99.99
2016-11-18T12:57:25.095Z,99.99
2016-11-18T12:58:37.054Z,99.63
2016-11-18T12:59:50.005Z,99.73
2016-11-18T13:01:03.595Z,99.01
2016-11-18T13:02:16.601Z,99.92
2016-11-18T13:03:30.104Z,99.73
2016-11-18T13:04:43.646Z,99.63
2016-11-18T13:05:56.161Z,98.53
2016-11-18T13:07:09.144Z,96.99
2016-11-18T13:08:21.582Z,96.17
2016-11-18T13:09:35.184Z,96.08
2016-11-18T13:10:47.744Z,94.59
2016-11-18T13:12:00.213Z,93.53
2016-11-18T13:13:13.723Z,93.82
2016-11-18T13:14:26.251Z,92.86
2016-11-18T13:15:39.824Z,92.67
2016-11-18T13:16:52.257Z,93.05
2016-11-18T13:18:05.805Z,92.57
2016-11-18T13:19:18.326Z,92.86
2016-11-18T13:20:31.918Z,92.09
2016-11-18T13:21:44.900Z,91.99
2016-11-18T13:22:56.337Z,91.99
2016-11-18T13:24:09.392Z,91.61
2016-11-18T13:25:21.890Z,92.19
2016-11-18T13:26:34.478Z,91.13
2016-11-18T13:27:48.088Z,91.17
2016-11-18T13:29:01.074Z,90.21
2016-11-18T13:30:14.086Z,91.32
2016-11-18T13:31:27.094Z,92.76
2016-11-18T13:32:39.066Z,93.01
2016-11-18T13:33:52.081Z,93.39
2016-11-18T13:35:04.561Z,93.19
2016-11-18T13:36:17.554Z,93.68
2016-11-18T13:37:30.054Z,94.16
2016-11-18T13:38:43.186Z,93.49
2016-11-18T13:39:55.700Z,93.58
2016-11-18T13:41:08.796Z,93.49
2016-11-18T13:42:22.361Z,93.19
2016-11-18T13:43:35.369Z,94.26
2016-11-18T13:44:48.326Z,93.87
2016-11-18T13:46:00.842Z,93.24
2016-11-18T13:47:13.898Z,92.47
2016-11-18T13:48:26.373Z,92.61
2016-11-18T13:49:39.910Z,91.66
2016-11-18T13:50:52.410Z,91.75
2016-11-18T13:52:05.445Z,91.94
2016-11-18T13:53:17.922Z,92.13
2016-11-18T13:54:30.919Z,92.33
2016-11-18T13:55:44.492Z,93.15
2016-11-18T13:56:56.937Z,94.4
2016-11-18T13:58:09.449Z,94.78
2016-11-18T13:59:22.469Z,94.88
2016-11-18T14:00:34.418Z,93.73
2016-11-18T14:01:47.977Z,93.82
2016-11-18T14:03:00.915Z,94.21
2016-11-18T14:04:12.375Z,94.88
2016-11-18T14:05:24.918Z,95.5
2016-11-18T14:06:36.354Z,95.12
2016-11-18T14:07:49.451Z,96.08
2016-11-18T14:09:02.485Z,96.56
2016-11-18T14:10:15.508Z,97.14
2016-11-18T14:11:28.622Z,95.31
2016-11-18T14:12:41.136Z,95.45
2016-11-18T14:13:53.606Z,96.17
2016-11-18T14:15:06.113Z,96.17
2016-11-18T14:16:19.129Z,96.37
2016-11-18T14:17:31.593Z,96.27
2016-11-18T14:18:43.531Z,96.17
2016-11-18T14:19:56.494Z,95.5
2016-11-18T14:21:10.004Z,95.79
2016-11-18T14:22:22.509Z,96.27
2016-11-18T14:23:34.996Z,96.37
2016-11-18T14:24:48.453Z,96.85
2016-11-18T14:26:02.050Z,96.75
2016-11-18T14:27:15.616Z,96.85
2016-11-18T14:28:29.224Z,96.75
2016-11-18T14:29:42.288Z,96.75
2016-11-18T14:30:55.362Z,97.04
2016-11-18T14:32:08.335Z,96.85
2016-11-18T14:33:21.396Z,96.66
2016-11-18T14:34:34.461Z,96.37
2016-11-18T14:35:48.012Z,95.84
2016-11-18T14:37:00.472Z,95.84
2016-11-18T14:38:14.005Z,95.45
2016-11-18T14:39:27.511Z,95.75
2016-11-18T14:40:40.003Z,95.84
2016-11-18T14:41:52.964Z,96.17
2016-11-18T14:43:05.941Z,95.55
2016-11-18T14:44:18.454Z,95.45
2016-11-18T14:45:31.494Z,94.88
2016-11-18T14:46:44.451Z,94.78
2016-11-18T14:47:57.474Z,95.45
2016-11-18T14:49:09.934Z,95.55
2016-11-18T14:50:23.029Z,96.56
2016-11-18T14:51:36.100Z,96.66
2016-11-18T14:52:48.531Z,96.85
2016-11-18T14:54:01.528Z,96.66
2016-11-18T14:55:13.502Z,97.24
2016-11-18T14:56:25.474Z,97.24
2016-11-18T14:57:38.491Z,97.52
2016-11-18T14:58:51.563Z,97.33
2016-11-18T15:00:05.256Z,96.85
2016-11-18T15:01:17.734Z,96.94
2016-11-18T15:02:30.758Z,96.85
2016-11-18T15:03:43.227Z,96.66
2016-11-18T15:04:56.743Z,96.94
2016-11-18T15:06:09.758Z,97.04
2016-11-18T15:07:22.766Z,96.47
2016-11-18T15:08:35.274Z,96.75
2016-11-18T15:09:48.352Z,97.28
2016-11-18T15:11:00.820Z,96.61
2016-11-18T15:12:14.359Z,96.32
2016-11-18T15:13:27.405Z,96.22
2016-11-18T15:14:39.871Z,96.03
2016-11-18T15:15:52.295Z,96.22
2016-11-18T15:17:05.349Z,96.99
2016-11-18T15:18:17.876Z,96.08
2016-11-18T15:19:30.885Z,94.73
2016-11-18T15:20:42.845Z,94.83
2016-11-18T15:21:55.946Z,94.15
2016-11-18T15:23:40.583Z,93.68
2016-11-18T15:24:53.569Z,93.15
2016-11-18T15:26:06.573Z,93.1
2016-11-18T15:27:20.126Z,93.68
2016-11-18T15:28:33.140Z,93
2016-11-18T15:29:46.215Z,95.21
2016-11-18T15:30:58.174Z,95.45
2016-11-18T15:32:11.178Z,95.94
2016-11-18T15:33:24.713Z,95.45
2016-11-18T15:34:37.219Z,95.55
2016-11-18T15:36:21.306Z,95.36
2016-11-18T15:37:34.805Z,94.68
2016-11-18T15:38:47.870Z,93.91
2016-11-18T15:40:00.297Z,94.11
2016-11-18T15:41:12.810Z,93.87
2016-11-18T15:42:26.378Z,94.54
2016-11-18T15:43:39.906Z,94.68
2016-11-18T15:44:51.905Z,95.36
2016-11-18T15:46:04.919Z,96.03
2016-11-18T15:47:17.905Z,96.66
2016-11-18T15:48:29.810Z,96.56
2016-11-18T15:49:41.765Z,97.04
2016-11-18T15:50:54.831Z,95.6
2016-11-18T15:52:07.272Z,95.21
2016-11-18T15:53:20.328Z,95.17